Time;durP1;ratioP1;P1;durP2;ratioP2;P2;SDS_P1;SDS_P2;PMS_P1;PMS_P2;Temp;Humidity;BMP_temperature;BMP_pressure;BME280_temperature;BME280_humidity;BME280_pressure;Samples;Min_cycle;Max_cycle;Signal;HPM_P1;HPM_P2
2022/01/24 00:01:53;;;;;;;;;52.33;42.67;;;;;-147.59;100.00;57188.72;6304536;22;45311;-77
2022/01/24 00:04:18;;;;;;;;;57.67;45.33;;;;;-147.59;100.00;57188.72;6305213;22;45366;-78
2022/01/24 00:06:44;;;;;;;;;52.33;42.33;;;;;-147.59;100.00;57188.72;6305247;22;45394;-78
2022/01/24 00:09:11;;;;;;;;;54.33;43.00;;;;;-147.59;100.00;57188.72;6303131;22;48123;-78
2022/01/24 00:11:59;;;;;;;;;59.00;46.67;;;;;-147.59;100.00;57188.72;6304383;22;45452;-78
2022/01/24 00:17:31;;;;;;;;;59.33;46.67;;;;;-147.59;100.00;57188.72;6305039;22;45429;-77
2022/01/24 00:28:10;;;;;;;;;50.00;42.33;;;;;-147.59;100.00;57188.72;6305813;22;45313;-78
2022/01/24 00:30:35;;;;;;;;;56.00;43.67;;;;;-147.59;100.00;57188.72;6305531;22;45379;-77
2022/01/24 00:33:01;;;;;;;;;56.50;46.00;;;;;-147.59;100.00;57188.72;6305567;22;45208;-78
2022/01/24 00:35:26;;;;;;;;;51.33;42.00;;;;;-147.59;100.00;57188.72;6305356;22;45358;-77
2022/01/24 00:37:52;;;;;;;;;59.00;45.67;;;;;-147.59;100.00;57188.72;6305633;22;45290;-77
2022/01/24 00:40:18;;;;;;;;;55.33;41.67;;;;;-147.59;100.00;57188.72;6305690;22;45258;-77
2022/01/24 00:53:16;;;;;;;;;55.67;43.33;;;;;-147.59;100.00;57188.72;6305201;22;45390;-78
2022/01/24 00:55:44;;;;;;;;;46.33;39.67;;;;;-147.59;100.00;57188.72;6306002;22;45184;-77
2022/01/24 00:58:09;;;;;;;;;58.67;43.33;;;;;-147.59;100.00;57188.72;6305512;22;45503;-77
2022/01/24 01:00:35;;;;;;;;;47.00;42.00;;;;;-147.59;100.00;57188.72;6304537;22;46118;-77
2022/01/24 01:03:01;;;;;;;;;44.67;40.67;;;;;-147.59;100.00;57188.72;6304896;22;45266;-78
2022/01/24 01:18:45;;;;;;;;;58.33;42.00;;;;;-147.59;100.00;57188.72;6305166;22;45208;-78
2022/01/24 01:21:13;;;;;;;;;52.67;45.67;;;;;-147.59;100.00;57188.72;6304937;22;46472;-78
2022/01/24 01:23:50;;;;;;;;;57.67;43.33;;;;;-147.59;100.00;57188.72;6303413;22;45185;-78
2022/01/24 01:26:43;;;;;;;;;55.50;44.25;;;;;-147.59;100.00;57188.72;6305719;22;45299;-78
2022/01/24 01:29:26;;;;;;;;;52.00;43.67;;;;;-147.59;100.00;57188.72;6304572;22;45331;-78
2022/01/24 01:53:05;;;;;;;;;48.67;38.67;;;;;-147.59;100.00;57188.72;6304339;22;45334;-77
2022/01/24 01:55:40;;;;;;;;;47.00;39.00;;;;;-147.59;100.00;57188.72;6304638;22;45161;-77
2022/01/24 01:58:18;;;;;;;;;49.00;39.67;;;;;-147.59;100.00;57188.72;6305586;22;45142;-77
2022/01/24 02:00:50;;;;;;;;;54.67;39.67;;;;;-147.59;100.00;57188.72;6302063;22;45451;-77
2022/01/24 02:03:17;;;;;;;;;50.33;38.67;;;;;-147.59;100.00;57188.72;6305040;22;45937;-77
2022/01/24 02:05:43;;;;;;;;;57.33;42.33;;;;;-147.59;100.00;57188.72;6302366;22;45444;-77
2022/01/24 02:08:08;;;;;;;;;43.33;41.00;;;;;-147.59;100.00;57188.72;6305022;22;45402;-77
2022/01/24 02:10:36;;;;;;;;;49.33;37.00;;;;;-147.59;100.00;57188.72;6304285;22;45351;-77
2022/01/24 02:13:03;;;;;;;;;49.00;42.00;;;;;-147.59;100.00;57188.72;6303228;22;47057;-77
2022/01/24 02:25:53;;;;;;;;;43.67;38.33;;;;;-147.59;100.00;57188.72;6304101;22;45387;-77
2022/01/24 02:28:21;;;;;;;;;54.67;40.33;;;;;-147.59;100.00;57188.72;6305024;22;45711;-77
2022/01/24 02:33:32;;;;;;;;;44.67;40.67;;;;;-147.59;100.00;57188.72;6304900;22;45852;-77
2022/01/24 02:35:57;;;;;;;;;45.33;37.33;;;;;-147.59;100.00;57188.72;6305099;22;45429;-77
2022/01/24 02:49:12;;;;;;;;;45.33;40.67;;;;;-147.59;100.00;57188.72;6303272;22;45267;-78
2022/01/24 02:54:24;;;;;;;;;45.00;40.67;;;;;-147.59;100.00;57188.72;6304582;22;46019;-77
2022/01/24 02:56:49;;;;;;;;;43.67;38.00;;;;;-147.59;100.00;57188.72;6304567;22;45275;-77
2022/01/24 02:59:15;;;;;;;;;41.00;37.00;;;;;-147.59;100.00;57188.72;6305452;22;45216;-77
2022/01/24 03:01:41;;;;;;;;;44.00;38.00;;;;;-147.59;100.00;57188.72;6304385;22;45422;-78
2022/01/24 03:04:07;;;;;;;;;40.67;37.67;;;;;-147.59;100.00;57188.72;6302462;22;47309;-77
2022/01/24 03:06:33;;;;;;;;;42.67;34.00;;;;;-147.59;100.00;57188.72;6304959;22;45363;-77
2022/01/24 03:08:58;;;;;;;;;48.67;34.00;;;;;-147.59;100.00;57188.72;6304950;22;45197;-78
2022/01/24 03:11:27;;;;;;;;;40.67;35.33;;;;;-147.59;100.00;57188.72;6302447;22;45193;-77
2022/01/24 03:13:53;;;;;;;;;40.00;36.00;;;;;-147.59;100.00;57188.72;6304489;22;45338;-77
2022/01/24 03:16:18;;;;;;;;;42.33;33.67;;;;;-147.59;100.00;57188.72;6302896;22;45260;-78
2022/01/24 03:18:43;;;;;;;;;40.33;35.67;;;;;-147.59;100.00;57188.72;6304335;22;45511;-77
2022/01/24 03:21:09;;;;;;;;;45.33;38.33;;;;;-147.59;100.00;57188.72;6304793;22;47888;-77
2022/01/24 03:23:34;;;;;;;;;42.00;35.33;;;;;-147.59;100.00;57188.72;6304377;22;45353;-77
2022/01/24 03:25:59;;;;;;;;;44.00;33.00;;;;;-147.59;100.00;57188.72;6304072;22;45311;-77
2022/01/24 03:28:25;;;;;;;;;42.67;40.00;;;;;-147.59;100.00;57188.72;6305093;22;45491;-77
2022/01/24 03:30:50;;;;;;;;;40.33;32.33;;;;;-147.59;100.00;57188.72;6304835;22;45182;-77
2022/01/24 03:33:16;;;;;;;;;43.00;39.00;;;;;-147.59;100.00;57188.72;6301845;22;47135;-77
2022/01/24 03:35:43;;;;;;;;;42.67;37.67;;;;;-147.59;100.00;57188.72;6304656;22;45287;-77
2022/01/24 03:38:10;;;;;;;;;36.00;29.33;;;;;-147.59;100.00;57188.72;6304857;22;45259;-77
2022/01/24 03:40:35;;;;;;;;;41.00;35.67;;;;;-147.59;100.00;57188.72;6302488;22;45606;-78
2022/01/24 03:43:01;;;;;;;;;45.33;37.00;;;;;-147.59;100.00;57188.72;6304238;22;46206;-78
2022/01/24 03:45:39;;;;;;;;;41.67;36.67;;;;;-147.59;100.00;57188.72;6304564;22;45302;-77
2022/01/24 03:48:10;;;;;;;;;38.67;33.67;;;;;-147.59;100.00;57188.72;6302169;22;45387;-77
2022/01/24 03:50:35;;;;;;;;;40.33;37.00;;;;;-147.59;100.00;57188.72;6304733;22;46228;-77
2022/01/24 03:53:01;;;;;;;;;41.00;36.00;;;;;-147.59;100.00;57188.72;6304392;22;46479;-77
2022/01/24 03:55:26;;;;;;;;;52.33;40.33;;;;;-147.59;100.00;57188.72;6302327;22;45384;-78
2022/01/24 03:57:52;;;;;;;;;41.33;34.33;;;;;-147.59;100.00;57188.72;6304602;22;45368;-77
2022/01/24 04:00:17;;;;;;;;;43.67;40.00;;;;;-147.59;100.00;57188.72;6304728;22;45277;-77
2022/01/24 04:02:42;;;;;;;;;49.33;41.33;;;;;-147.59;100.00;57188.72;6303581;22;45490;-78
2022/01/24 04:05:09;;;;;;;;;51.67;36.67;;;;;-147.59;100.00;57188.72;6304544;22;45222;-77
2022/01/24 04:07:34;;;;;;;;;41.67;30.00;;;;;-147.59;100.00;57188.72;6304602;22;45382;-77
2022/01/24 04:10:06;;;;;;;;;47.67;37.33;;;;;-147.59;100.00;57188.72;6303189;22;45178;-77
2022/01/24 04:12:32;;;;;;;;;37.67;30.00;;;;;-147.59;100.00;57188.72;6301983;22;46980;-77
2022/01/24 04:15:27;;;;;;;;;34.67;31.00;;;;;-147.59;100.00;57188.72;6303310;22;45359;-77
2022/01/24 04:18:11;;;;;;;;;37.67;30.00;;;;;-147.59;100.00;57188.72;6304008;22;45242;-78
2022/01/24 04:23:21;;;;;;;;;44.33;36.67;;;;;-147.59;100.00;57188.72;6303518;22;45855;-77
2022/01/24 04:25:46;;;;;;;;;41.67;32.00;;;;;-147.59;100.00;57188.72;6304022;22;45442;-77
2022/01/24 04:28:12;;;;;;;;;34.67;33.00;;;;;-147.59;100.00;57188.72;6304175;22;45680;-77
2022/01/24 04:30:38;;;;;;;;;40.33;33.67;;;;;-147.59;100.00;57188.72;6303868;22;45592;-77
2022/01/24 04:33:03;;;;;;;;;44.33;35.67;;;;;-147.59;100.00;57188.72;6303680;22;45486;-77
2022/01/24 04:35:29;;;;;;;;;36.67;32.67;;;;;-147.59;100.00;57188.72;6304131;22;45263;-78
2022/01/24 04:37:54;;;;;;;;;43.33;37.00;;;;;-147.59;100.00;57188.72;6305139;22;45275;-77
2022/01/24 04:40:20;;;;;;;;;45.67;38.00;;;;;-147.59;100.00;57188.72;6305274;22;45205;-77
2022/01/24 04:42:51;;;;;;;;;42.67;35.00;;;;;-147.59;100.00;57188.72;6305407;22;46276;-77
2022/01/24 04:53:43;;;;;;;;;45.33;31.67;;;;;-147.59;100.00;57188.72;6305423;22;45960;-78
2022/01/24 04:56:00;;;;;;;;;42.67;36.67;;;;;-147.59;100.00;57188.72;6304142;22;45268;-77
2022/01/24 04:58:26;;;;;;;;;34.67;30.00;;;;;-147.59;100.00;57188.72;6305415;22;45259;-77
2022/01/24 05:00:51;;;;;;;;;29.33;29.33;;;;;-147.59;100.00;57188.72;6304915;22;45453;-77
2022/01/24 05:03:16;;;;;;;;;55.67;40.33;;;;;-147.59;100.00;57188.72;6304992;22;46455;-77
2022/01/24 05:05:42;;;;;;;;;40.33;37.00;;;;;-147.59;100.00;57188.72;6305134;22;45298;-77
2022/01/24 05:08:09;;;;;;;;;37.33;31.00;;;;;-147.59;100.00;57188.72;6304699;22;45312;-77
2022/01/24 05:10:54;;;;;;;;;50.33;37.33;;;;;-147.59;100.00;57188.72;6302714;22;45337;-77
2022/01/24 05:23:24;;;;;;;;;42.33;37.67;;;;;-147.59;100.00;57188.72;6305302;22;45256;-77
2022/01/24 05:24:20;;;;;;;;;45.00;36.00;;;;;-147.59;100.00;57188.72;6303921;22;45884;-77
2022/01/24 05:26:45;;;;;;;;;45.67;36.67;;;;;-147.59;100.00;57188.72;6305522;22;45275;-78
2022/01/24 05:29:10;;;;;;;;;34.00;32.33;;;;;-147.59;100.00;57188.72;6303534;22;45241;-77
2022/01/24 05:31:36;;;;;;;;;39.33;33.67;;;;;-147.59;100.00;57188.72;6305827;22;45650;-77
2022/01/24 05:34:01;;;;;;;;;43.67;39.33;;;;;-147.59;100.00;57188.72;6304992;22;46184;-77
2022/01/24 05:36:27;;;;;;;;;32.67;29.67;;;;;-147.59;100.00;57188.72;6305548;22;45366;-77
2022/01/24 05:38:52;;;;;;;;;48.33;38.33;;;;;-147.59;100.00;57188.72;6305243;22;45433;-77
2022/01/24 05:41:18;;;;;;;;;45.33;39.67;;;;;-147.59;100.00;57188.72;6305465;22;45426;-78
2022/01/24 05:43:44;;;;;;;;;42.00;37.00;;;;;-147.59;100.00;57188.72;6305270;22;46223;-77
2022/01/24 05:46:09;;;;;;;;;40.33;35.00;;;;;-147.59;100.00;57188.72;6304939;22;45335;-77
2022/01/24 05:48:34;;;;;;;;;44.00;37.00;;;;;-147.59;100.00;57188.72;6304964;22;45237;-77
2022/01/24 05:51:00;;;;;;;;;53.33;40.33;;;;;-147.59;100.00;57188.72;6302909;22;45345;-77
2022/01/24 05:53:25;;;;;;;;;45.00;38.67;;;;;-147.59;100.00;57188.72;6302737;22;48661;-77
2022/01/24 05:55:53;;;;;;;;;48.67;38.67;;;;;-147.59;100.00;57188.72;6302367;22;45272;-77
2022/01/24 05:58:18;;;;;;;;;29.67;23.33;;;;;-147.59;100.00;57188.72;6305102;22;45192;-77
2022/01/24 06:00:43;;;;;;;;;46.00;33.67;;;;;-147.59;100.00;57188.72;6305217;22;45747;-77
2022/01/24 06:03:09;;;;;;;;;50.67;38.00;;;;;-147.59;100.00;57188.72;6304758;22;45222;-77
2022/01/24 06:05:34;;;;;;;;;36.00;32.67;;;;;-147.59;100.00;57188.72;6305582;22;45320;-77
2022/01/24 06:08:00;;;;;;;;;44.00;37.00;;;;;-147.59;100.00;57188.72;6302616;22;45348;-77
2022/01/24 06:10:25;;;;;;;;;39.33;34.00;;;;;-147.59;100.00;57188.72;6302710;22;45249;-77
2022/01/24 06:12:50;;;;;;;;;42.67;32.67;;;;;-147.59;100.00;57188.72;6304674;22;45249;-77
2022/01/24 06:15:16;;;;;;;;;44.33;36.00;;;;;-147.59;100.00;57188.72;6305068;22;45260;-77
2022/01/24 06:17:41;;;;;;;;;40.33;36.33;;;;;-147.59;100.00;57188.72;6304143;22;45252;-77
2022/01/24 06:20:07;;;;;;;;;44.00;36.33;;;;;-147.59;100.00;57188.72;6302662;22;45186;-78
2022/01/24 06:22:35;;;;;;;;;48.00;39.00;;;;;-147.59;100.00;57188.72;6304820;22;46282;-78
2022/01/24 06:25:01;;;;;;;;;51.33;40.67;;;;;-147.59;100.00;57188.72;6302164;22;45189;-78
2022/01/24 06:27:26;;;;;;;;;50.33;40.33;;;;;-147.59;100.00;57188.72;6304113;22;45220;-80
2022/01/24 06:29:51;;;;;;;;;42.67;37.67;;;;;-147.59;100.00;57188.72;6304616;22;45227;-78
2022/01/24 06:32:17;;;;;;;;;47.67;41.67;;;;;-147.59;100.00;57188.72;6304138;22;45309;-84
2022/01/24 06:34:42;;;;;;;;;50.67;40.67;;;;;-147.59;100.00;57188.72;6302533;22;45241;-82
2022/01/24 06:37:08;;;;;;;;;48.00;39.00;;;;;-147.59;100.00;57188.72;6302343;22;45582;-78
2022/01/24 06:39:33;;;;;;;;;47.67;38.67;;;;;-147.59;100.00;57188.72;6304255;22;45378;-78
2022/01/24 06:42:11;;;;;;;;;49.33;40.33;;;;;-147.59;100.00;57188.72;6304332;22;45599;-78
2022/01/24 06:44:36;;;;;;;;;53.00;40.33;;;;;-147.59;100.00;57188.72;6304819;22;45279;-80
2022/01/24 06:47:02;;;;;;;;;36.00;28.67;;;;;-147.59;100.00;57188.72;6304259;22;45344;-80
2022/01/24 06:49:27;;;;;;;;;44.33;26.33;;;;;-147.59;100.00;57188.72;6304630;22;45168;-82
2022/01/24 06:51:53;;;;;;;;;47.00;38.67;;;;;-147.59;100.00;57188.72;6302425;22;46798;-77
2022/01/24 06:54:18;;;;;;;;;32.33;30.00;;;;;-147.59;100.00;57188.72;6303967;22;46303;-76
2022/01/24 06:56:44;;;;;;;;;44.00;40.00;;;;;-147.59;100.00;57188.72;6304377;22;45307;-78
2022/01/24 06:59:09;;;;;;;;;41.67;35.33;;;;;-147.59;100.00;57188.72;6303350;22;45299;-78
2022/01/24 07:01:35;;;;;;;;;40.00;34.67;;;;;-147.59;100.00;57188.72;6303705;22;46124;-77
2022/01/24 07:04:00;;;;;;;;;42.33;35.67;;;;;-147.59;100.00;57188.72;6303231;22;45217;-78
2022/01/24 07:06:26;;;;;;;;;36.33;28.00;;;;;-147.59;100.00;57188.72;6304148;22;45159;-77
2022/01/24 07:08:51;;;;;;;;;36.33;32.33;;;;;-147.59;100.00;57188.72;6304222;22;45357;-78
2022/01/24 07:11:17;;;;;;;;;41.00;33.00;;;;;-147.59;100.00;57188.72;6303627;22;45403;-77
2022/01/24 07:13:42;;;;;;;;;45.67;39.67;;;;;-147.59;100.00;57188.72;6304270;22;45256;-78
2022/01/24 07:16:08;;;;;;;;;34.33;30.00;;;;;-147.59;100.00;57188.72;6302392;22;45478;-77
2022/01/24 07:21:02;;;;;;;;;32.67;29.67;;;;;-147.59;100.00;57188.72;6296269;22;45427;-79
2022/01/24 07:23:28;;;;;;;;;45.67;37.33;;;;;-147.59;100.00;57188.72;6301033;22;45329;-77
2022/01/24 07:25:53;;;;;;;;;39.33;35.00;;;;;-147.59;100.00;57188.72;6303493;22;45300;-79
2022/01/24 07:28:19;;;;;;;;;43.33;39.00;;;;;-147.59;100.00;57188.72;6302965;22;45229;-79
2022/01/24 07:30:46;;;;;;;;;41.00;37.33;;;;;-147.59;100.00;57188.72;6303583;22;46339;-79
2022/01/24 07:33:15;;;;;;;;;46.33;36.00;;;;;-147.59;100.00;57188.72;6300846;22;45362;-79
2022/01/24 07:35:44;;;;;;;;;38.33;31.33;;;;;-147.59;100.00;57188.72;6302029;22;45800;-80
2022/01/24 07:38:10;;;;;;;;;42.00;35.33;;;;;-147.59;100.00;57188.72;6302459;22;45252;-80
2022/01/24 07:40:42;;;;;;;;;45.00;33.00;;;;;-147.59;100.00;57188.72;6303377;22;45437;-82
2022/01/24 07:43:12;;;;;;;;;43.33;35.00;;;;;-147.59;100.00;57188.72;6303939;22;45347;-81
2022/01/24 07:45:44;;;;;;;;;47.67;37.00;;;;;-147.59;100.00;57188.72;6303961;22;45253;-79
2022/01/24 07:48:10;;;;;;;;;29.67;27.67;;;;;-147.59;100.00;57188.72;6302549;22;45498;-78
2022/01/24 07:50:40;;;;;;;;;40.33;33.33;;;;;-147.59;100.00;57188.72;6301713;22;46627;-79
2022/01/24 07:53:07;;;;;;;;;52.33;40.00;;;;;-147.59;100.00;57188.72;6300760;22;45800;-79
2022/01/24 07:55:33;;;;;;;;;50.33;39.00;;;;;-147.59;100.00;57188.72;6301523;22;45563;-79
2022/01/24 07:57:58;;;;;;;;;44.00;33.00;;;;;-147.59;100.00;57188.72;6304466;22;45318;-79
2022/01/24 08:00:24;;;;;;;;;42.33;38.33;;;;;-147.59;100.00;57188.72;6300534;22;47051;-79
2022/01/24 08:02:49;;;;;;;;;38.33;31.33;;;;;-147.59;100.00;57188.72;6303409;22;46700;-79
2022/01/24 08:05:14;;;;;;;;;42.00;34.67;;;;;-147.59;100.00;57188.72;6301626;22;45336;-79
2022/01/24 08:07:40;;;;;;;;;42.33;37.33;;;;;-147.59;100.00;57188.72;6302843;22;45318;-79
2022/01/24 08:10:08;;;;;;;;;46.00;39.33;;;;;-147.59;100.00;57188.72;6298561;22;46840;-79
2022/01/24 08:12:35;;;;;;;;;39.00;36.67;;;;;-147.59;100.00;57188.72;6302368;22;45654;-80
2022/01/24 08:15:02;;;;;;;;;41.00;35.33;;;;;-147.59;100.00;57188.72;6302462;22;45472;-79
2022/01/24 08:17:28;;;;;;;;;46.00;37.67;;;;;-147.59;100.00;57188.72;6301462;22;45419;-79
2022/01/24 08:19:53;;;;;;;;;45.67;37.00;;;;;-147.59;100.00;57188.72;6303132;22;46137;-79
2022/01/24 08:22:19;;;;;;;;;47.33;37.67;;;;;-147.59;100.00;57188.72;6301472;22;46205;-79
2022/01/24 08:24:50;;;;;;;;;44.00;35.67;;;;;-147.59;100.00;57188.72;6302615;22;45404;-79
2022/01/24 08:27:18;;;;;;;;;38.00;35.33;;;;;-147.59;100.00;57188.72;6302613;22;45193;-79
2022/01/24 08:29:45;;;;;;;;;48.00;36.67;;;;;-147.59;100.00;57188.72;6303876;22;45245;-79
2022/01/24 08:32:11;;;;;;;;;39.67;32.67;;;;;-147.59;100.00;57188.72;6304337;22;45723;-79
2022/01/24 08:34:37;;;;;;;;;43.00;37.67;;;;;-147.59;100.00;57188.72;6304034;22;45563;-79
2022/01/24 08:37:04;;;;;;;;;53.67;40.33;;;;;-147.59;100.00;57188.72;6304367;22;45409;-78
2022/01/24 08:39:29;;;;;;;;;45.33;36.67;;;;;-147.59;100.00;57188.72;6304650;22;46215;-88
2022/01/24 08:44:33;;;;;;;;;45.00;40.00;;;;;-147.59;100.00;57188.72;6305009;22;45432;-87
2022/01/24 08:47:00;;;;;;;;;36.33;34.00;;;;;-147.59;100.00;57188.72;6303811;22;45465;-87
2022/01/24 08:49:25;;;;;;;;;47.33;40.67;;;;;-147.59;100.00;57188.72;6303825;22;47182;-85
2022/01/24 08:51:51;;;;;;;;;39.00;34.33;;;;;-147.59;100.00;57188.72;6302982;22;45282;-84
2022/01/24 08:54:16;;;;;;;;;40.33;35.00;;;;;-147.59;100.00;57188.72;6302758;22;45332;-85
2022/01/24 08:56:44;;;;;;;;;36.67;34.00;;;;;-147.59;100.00;57188.72;6302792;22;45307;-85
2022/01/24 08:59:10;;;;;;;;;42.67;39.00;;;;;-147.59;100.00;57188.72;6304771;22;45368;-87
2022/01/24 09:01:35;;;;;;;;;38.67;31.33;;;;;-147.59;100.00;57188.72;6303205;22;45394;-87
2022/01/24 09:04:00;;;;;;;;;43.00;39.00;;;;;-147.59;100.00;57188.72;6303312;22;45330;-85
2022/01/24 09:06:28;;;;;;;;;44.33;30.67;;;;;-147.59;100.00;57188.72;6303077;22;45367;-85
2022/01/24 09:08:59;;;;;;;;;35.00;32.33;;;;;-147.59;100.00;57188.72;6304067;22;47221;-88
2022/01/24 09:11:29;;;;;;;;;34.67;30.00;;;;;-147.59;100.00;57188.72;6306165;22;45321;-88
2022/01/24 09:13:55;;;;;;;;;40.00;34.67;;;;;-147.59;100.00;57188.72;6304210;22;45362;-87
2022/01/24 09:16:21;;;;;;;;;43.33;34.00;;;;;-147.59;100.00;57188.72;6304291;22;45292;-88
2022/01/24 09:18:46;;;;;;;;;39.67;32.67;;;;;-147.59;100.00;57188.72;6304183;22;48188;-87
2022/01/24 09:21:12;;;;;;;;;36.33;28.00;;;;;-147.59;100.00;57188.72;6305858;22;45188;-91
2022/01/24 09:23:38;;;;;;;;;46.33;36.00;;;;;-147.59;100.00;57188.72;6305007;22;45498;-90
2022/01/24 09:26:03;;;;;;;;;45.67;37.67;;;;;-147.59;100.00;57188.72;6306281;22;45399;-88
2022/01/24 09:28:29;;;;;;;;;43.33;35.33;;;;;-147.59;100.00;57188.72;6304455;22;47565;-89
2022/01/24 09:30:54;;;;;;;;;43.00;38.00;;;;;-147.59;100.00;57188.72;6305723;22;45442;-90
2022/01/24 09:33:20;;;;;;;;;51.00;43.33;;;;;-147.59;100.00;57188.72;6305289;22;45408;-88
2022/01/24 09:35:46;;;;;;;;;54.67;41.67;;;;;-147.59;100.00;57188.72;6304615;22;45388;-87
2022/01/24 09:38:12;;;;;;;;;55.67;41.00;;;;;-147.59;100.00;57188.72;6304297;22;47426;-91
2022/01/24 09:40:38;;;;;;;;;43.00;36.67;;;;;-147.59;100.00;57188.72;6304544;22;45441;-88
2022/01/24 09:43:04;;;;;;;;;48.33;41.67;;;;;-147.59;100.00;57188.72;6303953;22;45337;-86
2022/01/24 09:45:30;;;;;;;;;40.33;35.67;;;;;-147.59;100.00;57188.72;6304137;22;45514;-87
2022/01/24 09:47:57;;;;;;;;;48.00;39.67;;;;;-147.59;100.00;57188.72;6303043;22;47651;-90
2022/01/24 09:50:22;;;;;;;;;50.00;41.00;;;;;-147.59;100.00;57188.72;6304103;22;46057;-92
2022/01/24 09:52:50;;;;;;;;;49.67;40.67;;;;;-147.59;100.00;57188.72;6304084;22;45524;-88
2022/01/24 09:55:18;;;;;;;;;48.67;40.00;;;;;-147.59;100.00;57188.72;6305110;22;45357;-88
2022/01/24 09:57:47;;;;;;;;;43.67;38.33;;;;;-147.59;100.00;57188.72;6303686;22;46973;-88
2022/01/24 10:00:15;;;;;;;;;35.33;32.00;;;;;-147.59;100.00;57188.72;6303468;22;45325;-88
2022/01/24 10:02:43;;;;;;;;;42.67;34.00;;;;;-147.59;100.00;57188.72;6303785;22;45386;-88
2022/01/24 10:05:19;;;;;;;;;46.67;42.00;;;;;-147.59;100.00;57188.72;6303106;22;45487;-87
2022/01/24 10:07:59;;;;;;;;;44.00;36.33;;;;;-147.59;100.00;57188.72;6303093;22;47957;-87
2022/01/24 10:10:46;;;;;;;;;51.00;40.00;;;;;-147.59;100.00;57188.72;6303149;22;45319;-89
2022/01/24 10:16:31;;;;;;;;;41.67;36.00;;;;;-147.59;100.00;57188.72;6306498;22;45307;-90
2022/01/24 10:19:16;;;;;;;;;49.00;38.00;;;;;-147.59;100.00;57188.72;6301941;22;46294;-86
2022/01/24 10:21:44;;;;;;;;;43.00;40.00;;;;;-147.59;100.00;57188.72;6302658;22;45269;-88
2022/01/24 10:24:12;;;;;;;;;40.67;35.33;;;;;-147.59;100.00;57188.72;6303942;22;45297;-89
2022/01/24 10:26:38;;;;;;;;;43.67;39.00;;;;;-147.59;100.00;57188.72;6304508;22;45284;-89
2022/01/24 10:29:12;;;;;;;;;52.00;41.67;;;;;-147.59;100.00;57188.72;6302723;22;48255;-87
2022/01/24 10:31:48;;;;;;;;;45.67;37.00;;;;;-147.59;100.00;57188.72;6302493;22;45779;-84
2022/01/24 10:34:22;;;;;;;;;49.00;39.33;;;;;-147.59;100.00;57188.72;6302361;22;45435;-81
2022/01/24 10:36:52;;;;;;;;;50.00;39.67;;;;;-147.59;100.00;57188.72;6302396;22;45348;-83
2022/01/24 10:39:28;;;;;;;;;45.67;37.00;;;;;-147.59;100.00;57188.72;6303442;22;45281;-84
2022/01/24 10:45:09;;;;;;;;;49.67;34.67;;;;;-147.59;100.00;57188.72;6304360;22;45156;-85
2022/01/24 10:47:43;;;;;;;;;43.00;38.67;;;;;-147.59;100.00;57188.72;6304013;22;45360;-85
2022/01/24 10:50:09;;;;;;;;;49.33;39.00;;;;;-147.59;100.00;57188.72;6301749;22;47095;-84
2022/01/24 10:52:34;;;;;;;;;36.00;34.33;;;;;-147.59;100.00;57188.72;6303417;22;45390;-83
2022/01/24 10:55:14;;;;;;;;;42.00;37.00;;;;;-147.59;100.00;57188.72;6301732;22;45342;-83
2022/01/24 10:57:41;;;;;;;;;50.00;38.67;;;;;-147.59;100.00;57188.72;6304460;22;45240;-80
2022/01/24 11:00:11;;;;;;;;;50.33;39.00;;;;;-147.59;100.00;57188.72;6301226;22;47195;-80
2022/01/24 11:02:41;;;;;;;;;48.00;38.33;;;;;-147.59;100.00;57188.72;6301553;22;45281;-80
2022/01/24 11:05:11;;;;;;;;;47.33;40.00;;;;;-147.59;100.00;57188.72;6303126;22;45276;-80
2022/01/24 11:07:59;;;;;;;;;49.00;38.33;;;;;-147.59;100.00;57188.72;6302239;22;45384;-80
2022/01/24 11:10:32;;;;;;;;;38.00;34.33;;;;;-147.59;100.00;57188.72;6302850;22;45465;-83
2022/01/24 11:12:58;;;;;;;;;36.67;33.33;;;;;-147.59;100.00;57188.72;6303536;22;45299;-81
2022/01/24 11:15:26;;;;;;;;;35.33;33.33;;;;;-147.59;100.00;57188.72;6301085;22;45368;-83
2022/01/24 11:17:52;;;;;;;;;38.33;36.33;;;;;-147.59;100.00;57188.72;6301278;22;45332;-83
2022/01/24 11:20:21;;;;;;;;;42.00;35.00;;;;;-147.59;100.00;57188.72;6301077;22;48017;-83
2022/01/24 11:23:20;;;;;;;;;45.00;38.33;;;;;-147.59;100.00;57188.72;6301441;22;45718;-84
2022/01/24 11:25:47;;;;;;;;;43.33;37.67;;;;;-147.59;100.00;57188.72;6301801;22;45288;-81
2022/01/24 11:28:12;;;;;;;;;43.67;36.67;;;;;-147.59;100.00;57188.72;6303718;22;45461;-79
2022/01/24 11:31:01;;;;;;;;;40.67;37.00;;;;;-147.59;100.00;57188.72;6300859;22;47987;-80
2022/01/24 11:33:36;;;;;;;;;27.00;24.00;;;;;-147.59;100.00;57188.72;6303962;22;45723;-79
2022/01/24 11:36:04;;;;;;;;;44.67;33.00;;;;;-147.59;100.00;57188.72;6302814;22;45511;-79
2022/01/24 11:38:43;;;;;;;;;39.33;33.00;;;;;-147.59;100.00;57188.72;6303712;22;45536;-78
2022/01/24 11:41:21;;;;;;;;;35.67;30.33;;;;;-147.59;100.00;57188.72;6303722;22;45403;-79
2022/01/24 11:43:51;;;;;;;;;38.00;32.67;;;;;-147.59;100.00;57188.72;6301723;22;45391;-83
2022/01/24 11:46:44;;;;;;;;;40.67;31.67;;;;;-147.59;100.00;57188.72;6304085;22;45334;-82
2022/01/24 11:49:16;;;;;;;;;36.00;30.33;;;;;-147.59;100.00;57188.72;6304852;22;45211;-81
2022/01/24 11:51:48;;;;;;;;;32.33;30.00;;;;;-147.59;100.00;57188.72;6305214;22;45389;-82
2022/01/24 11:55:01;;;;;;;;;37.67;29.33;;;;;-147.59;100.00;57188.72;6304804;22;45296;-81
2022/01/24 11:57:33;;;;;;;;;31.33;27.67;;;;;-147.59;100.00;57188.72;6302602;22;45785;-88
2022/01/24 12:00:02;;;;;;;;;39.00;29.33;;;;;-147.59;100.00;57188.72;6304738;22;45528;-80
2022/01/24 12:02:30;;;;;;;;;35.33;35.33;;;;;-147.59;100.00;57188.72;6302963;22;47670;-84
2022/01/24 12:04:58;;;;;;;;;36.33;29.67;;;;;-147.59;100.00;57188.72;6297535;22;45504;-84
2022/01/24 12:07:25;;;;;;;;;35.67;28.33;;;;;-147.59;100.00;57188.72;6299776;22;45485;-82
2022/01/24 12:09:53;;;;;;;;;29.00;28.00;;;;;-147.59;100.00;57188.72;6299242;22;45394;-81
2022/01/24 12:12:44;;;;;;;;;38.33;32.67;;;;;-147.59;100.00;57188.72;6293868;22;47419;-79
2022/01/24 12:15:30;;;;;;;;;35.33;32.00;;;;;-147.59;100.00;57188.72;6296722;22;45782;-81
2022/01/24 12:17:57;;;;;;;;;35.33;29.33;;;;;-147.59;100.00;57188.72;6297191;22;45270;-81
2022/01/24 12:20:32;;;;;;;;;42.33;35.33;;;;;-147.59;100.00;57188.72;6297457;22;45846;-82
2022/01/24 12:22:58;;;;;;;;;39.33;27.67;;;;;-147.59;100.00;57188.72;6299052;22;46068;-82
2022/01/24 12:26:11;;;;;;;;;41.00;33.67;;;;;-147.59;100.00;57188.72;6298622;22;45474;-82
2022/01/24 12:28:42;;;;;;;;;32.33;27.67;;;;;-147.59;100.00;57188.72;6177177;22;45810;-82
2022/01/24 12:31:20;;;;;;;;;29.00;26.33;;;;;-147.59;100.00;57188.72;6203191;22;45593;-82
2022/01/24 12:33:54;;;;;;;;;32.67;30.00;;;;;-147.59;100.00;57188.72;6177792;22;47909;-81
2022/01/24 12:36:38;;;;;;;;;38.33;34.67;;;;;-147.59;100.00;57188.72;6203332;22;45799;-82
2022/01/24 12:39:14;;;;;;;;;33.33;29.00;;;;;-147.59;100.00;57188.72;6202613;22;45435;-82
2022/01/24 12:41:46;;;;;;;;;34.67;28.67;;;;;-147.59;100.00;57188.72;6177439;22;45745;-82
2022/01/24 12:46:17;;;;;;;;;34.00;26.67;;;;;-147.59;100.00;57188.72;6202241;22;46745;-83
2022/01/24 12:46:57;;;;;;;;;31.00;27.67;;;;;-147.59;100.00;57188.72;6202677;22;45428;-80
2022/01/24 12:49:26;;;;;;;;;28.00;23.33;;;;;-147.59;100.00;57188.72;6202871;22;45944;-82
2022/01/24 12:51:51;;;;;;;;;28.67;24.33;;;;;-147.59;100.00;57188.72;6202994;22;45774;-82
2022/01/24 12:54:17;;;;;;;;;27.33;22.33;;;;;-147.59;100.00;57188.72;6203700;22;47652;-83
2022/01/24 12:56:43;;;;;;;;;31.67;26.00;;;;;-147.59;100.00;57188.72;6202681;22;45576;-83